Time;durP1;ratioP1;P1;durP2;ratioP2;P2;SDS_P1;SDS_P2;PMS_P1;PMS_P2;Temp;Humidity;BMP_temperature;BMP_pressure;BME280_temperature;BME280_humidity;BME280_pressure;Samples;Min_cycle;Max_cycle;Signal;HPM_P1;HPM_P2
2023/07/18 00:00:37;;;;;;;1999.90;999.90;;;;;;;22.83;100.00;95923.16;5083557;28;20207;-67
2023/07/18 00:03:04;;;;;;;1999.90;999.90;;;;;;;22.82;100.00;95924.38;5084208;28;20244;-65
2023/07/18 00:05:30;;;;;;;1999.90;999.90;;;;;;;22.79;100.00;95928.88;5083614;28;20165;-66
2023/07/18 00:07:55;;;;;;;1999.90;999.90;;;;;;;22.81;100.00;95929.19;5083525;28;20239;-66
2023/07/18 00:10:22;;;;;;;1999.90;999.90;;;;;;;22.83;100.00;95931.53;5083541;28;20227;-66
2023/07/18 00:12:48;;;;;;;1999.90;999.90;;;;;;;22.82;100.00;95925.16;5084053;28;20173;-66
2023/07/18 00:15:14;;;;;;;1999.90;999.90;;;;;;;22.82;100.00;95918.81;5083465;28;20192;-66
2023/07/18 00:17:40;;;;;;;1999.90;999.90;;;;;;;22.76;100.00;95917.94;5083751;28;20166;-66
2023/07/18 00:20:12;;;;;;;1999.90;999.90;;;;;;;22.74;100.00;95917.59;5083900;28;20208;-66
2023/07/18 00:22:38;;;;;;;1999.90;999.90;;;;;;;22.75;100.00;95919.16;5084046;28;20179;-66
2023/07/18 00:25:04;;;;;;;1999.90;999.90;;;;;;;22.73;100.00;95927.22;5083459;28;20200;-66
2023/07/18 00:27:29;;;;;;;1999.90;999.90;;;;;;;22.72;100.00;95929.22;5084002;28;20219;-67
2023/07/18 00:29:57;;;;;;;1999.90;999.90;;;;;;;22.67;100.00;95929.09;5083473;28;20219;-66
2023/07/18 00:32:23;;;;;;;1999.90;999.90;;;;;;;22.69;100.00;95932.94;5083775;28;20173;-66
2023/07/18 00:34:49;;;;;;;1999.90;999.90;;;;;;;22.71;100.00;95929.69;5083339;28;20173;-66
2023/07/18 00:37:15;;;;;;;1999.90;999.90;;;;;;;22.67;100.00;95929.09;5084158;28;20169;-66
2023/07/18 00:39:40;;;;;;;1999.90;999.90;;;;;;;22.67;100.00;95929.09;5083447;28;20251;-66
2023/07/18 00:42:06;;;;;;;1999.90;999.90;;;;;;;22.70;100.00;95922.56;5083505;28;20214;-66
2023/07/18 00:44:32;;;;;;;1999.90;999.90;;;;;;;22.74;100.00;95928.75;5083804;28;20166;-67
2023/07/18 00:46:57;;;;;;;1999.90;999.90;;;;;;;22.76;100.00;95932.59;5083120;28;20244;-66
2023/07/18 00:49:22;;;;;;;1999.90;999.90;;;;;;;22.72;100.00;95926.44;5083332;28;20165;-66
2023/07/18 00:51:48;;;;;;;1999.90;999.90;;;;;;;22.74;100.00;95926.75;5083521;28;20180;-66
2023/07/18 00:54:14;;;;;;;1999.90;999.90;;;;;;;22.78;100.00;95926.56;5083211;28;20198;-66
2023/07/18 00:56:39;;;;;;;1999.90;999.90;;;;;;;22.80;100.00;95929.66;5085584;28;20177;-66
2023/07/18 00:59:07;;;;;;;1999.90;999.90;;;;;;;22.76;100.00;95909.56;5086857;28;20211;-66
2023/07/18 01:01:34;;;;;;;1999.90;999.90;;;;;;;22.70;100.00;95915.00;5086631;28;20211;-67
2023/07/18 01:03:59;;;;;;;1999.90;999.90;;;;;;;22.69;100.00;95909.91;5086781;28;20174;-66
2023/07/18 01:06:25;;;;;;;1999.90;999.90;;;;;;;22.62;100.00;95910.22;5086797;28;20182;-66
2023/07/18 01:08:50;;;;;;;1999.90;999.90;;;;;;;22.60;100.00;95904.34;5087102;28;20227;-66
2023/07/18 01:11:16;;;;;;;1999.90;999.90;;;;;;;22.58;100.00;95906.84;5086516;28;20183;-66
2023/07/18 01:13:41;;;;;;;1999.90;999.90;;;;;;;22.50;100.00;95897.28;5086573;28;20215;-66
2023/07/18 01:16:07;;;;;;;1999.90;999.90;;;;;;;22.42;100.00;95897.56;5086394;28;20169;-65
2023/07/18 01:18:32;;;;;;;1999.90;999.90;;;;;;;22.29;100.00;95894.19;5086323;28;20169;-66
2023/07/18 01:20:59;;;;;;;1999.90;999.90;;;;;;;22.26;100.00;95888.78;5087006;28;20205;-66
2023/07/18 01:23:25;;;;;;;1999.90;999.90;;;;;;;22.20;100.00;95888.66;5086401;28;20196;-66
2023/07/18 01:25:50;;;;;;;1999.90;999.90;;;;;;;22.14;100.00;95887.72;5086743;28;20173;-66
2023/07/18 01:28:16;;;;;;;1999.90;999.90;;;;;;;22.06;100.00;95885.72;5086220;28;20173;-66
2023/07/18 01:30:41;;;;;;;1999.90;999.90;;;;;;;21.93;100.00;95879.56;5086388;28;20182;-66
2023/07/18 01:33:06;;;;;;;1999.90;999.90;;;;;;;21.83;100.00;95873.25;5086738;28;20173;-66
2023/07/18 01:35:32;;;;;;;1999.90;999.90;;;;;;;21.67;100.00;95881.84;5086068;28;20173;-66
2023/07/18 01:37:58;;;;;;;1999.90;999.90;;;;;;;21.53;100.00;95871.34;5086542;28;20226;-66
2023/07/18 01:40:24;;;;;;;1999.90;999.90;;;;;;;21.43;100.00;95872.59;5085859;28;20201;-66
2023/07/18 01:42:51;;;;;;;1999.90;999.90;;;;;;;21.33;100.00;95868.25;5085941;28;20185;-66
2023/07/18 01:45:20;;;;;;;1999.90;999.90;;;;;;;21.23;100.00;95875.00;5085945;28;20177;-66
2023/07/18 01:47:47;;;;;;;1999.90;999.90;;;;;;;21.21;100.00;95866.38;5086315;28;20177;-66
2023/07/18 01:50:13;;;;;;;1999.90;999.90;;;;;;;21.17;100.00;95865.75;5086218;28;20228;-66
2023/07/18 01:52:39;;;;;;;1999.90;999.90;;;;;;;21.08;100.00;95868.50;5085741;28;20213;-66
2023/07/18 01:55:05;;;;;;;1999.90;999.90;;;;;;;20.98;100.00;95869.69;5085898;28;20244;-66
2023/07/18 01:57:39;;;;;;;1999.90;999.90;;;;;;;20.95;100.00;95876.19;5086423;28;20169;-67
2023/07/18 02:00:12;;;;;;;1999.90;999.90;;;;;;;20.97;100.00;95856.28;5085947;28;20204;-66
2023/07/18 02:02:41;;;;;;;1999.90;999.90;;;;;;;21.02;100.00;95858.47;5086031;28;20173;-66
2023/07/18 02:05:07;;;;;;;1999.90;999.90;;;;;;;20.95;100.00;95844.88;5085503;28;20174;-66
2023/07/18 02:07:33;;;;;;;1999.90;999.90;;;;;;;20.85;100.00;95844.03;5085261;28;20174;-69
2023/07/18 02:10:01;;;;;;;1999.90;999.90;;;;;;;20.82;100.00;95844.16;5085406;28;20178;-66
2023/07/18 02:12:27;;;;;;;1999.90;999.90;;;;;;;20.74;100.00;95840.13;5085424;28;20258;-66
2023/07/18 02:14:53;;;;;;;1999.90;999.90;;;;;;;20.69;100.00;95835.94;5085350;28;20165;-67
2023/07/18 02:17:18;;;;;;;1999.90;999.90;;;;;;;20.64;100.00;95833.78;5085797;28;20174;-66
2023/07/18 02:19:44;;;;;;;1999.90;999.90;;;;;;;20.59;100.00;95831.63;5085506;28;20201;-66
2023/07/18 02:22:09;;;;;;;1999.90;999.90;;;;;;;20.58;100.00;95823.75;5085646;28;20177;-66
2023/07/18 02:24:35;;;;;;;1999.90;999.90;;;;;;;20.54;100.00;95829.44;5085286;28;20173;-67
2023/07/18 02:27:00;;;;;;;1999.90;999.90;;;;;;;20.51;100.00;95819.25;5085084;28;20177;-66
2023/07/18 02:29:26;;;;;;;1999.90;999.90;;;;;;;20.56;100.00;95821.44;5085530;28;20173;-66
2023/07/18 02:31:51;;;;;;;1999.90;999.90;;;;;;;20.52;100.00;95809.69;5085417;28;20189;-66
2023/07/18 02:34:17;;;;;;;1999.90;999.90;;;;;;;20.53;100.00;95808.47;5084888;28;20187;-66
2023/07/18 02:36:42;;;;;;;1999.90;999.90;;;;;;;20.57;100.00;95806.31;5084909;28;20169;-66
2023/07/18 02:39:10;;;;;;;1999.90;999.90;;;;;;;20.52;100.00;95798.59;5085049;28;20176;-66
2023/07/18 02:41:36;;;;;;;1999.90;999.90;;;;;;;20.50;100.00;95789.94;5084418;28;20276;-66
2023/07/18 02:44:03;;;;;;;1999.90;999.90;;;;;;;20.53;100.00;95797.34;5085204;28;20236;-66
2023/07/18 02:46:28;;;;;;;1999.90;999.90;;;;;;;20.55;100.00;95786.59;5084698;28;20208;-66
2023/07/18 02:48:53;;;;;;;1999.90;999.90;;;;;;;20.53;100.00;95783.47;5084533;28;20172;-67
2023/07/18 02:51:19;;;;;;;1999.90;999.90;;;;;;;20.49;100.00;95780.06;5084713;28;20181;-66
2023/07/18 02:53:44;;;;;;;1999.90;999.90;;;;;;;20.49;100.00;95773.75;5084576;28;20224;-66
2023/07/18 02:56:09;;;;;;;1999.90;999.90;;;;;;;20.38;100.00;95776.19;5084636;28;20177;-66
2023/07/18 02:58:35;;;;;;;1999.90;999.90;;;;;;;20.22;100.00;95768.91;5084823;28;20169;-66
2023/07/18 03:01:01;;;;;;;1999.90;999.90;;;;;;;20.16;100.00;95770.72;5084410;28;20262;-67
2023/07/18 03:03:27;;;;;;;1999.90;999.90;;;;;;;20.09;100.00;95765.41;5084396;28;20173;-66
2023/07/18 03:05:56;;;;;;;1999.90;999.90;;;;;;;20.05;100.00;95767.53;5084287;28;20185;-69
2023/07/18 03:08:22;;;;;;;1999.90;999.90;;;;;;;20.00;100.00;95768.16;5084244;28;20177;-69
2023/07/18 03:10:47;;;;;;;1999.90;999.90;;;;;;;19.94;100.00;95747.00;5084200;28;20184;-68
2023/07/18 03:13:12;;;;;;;1999.90;999.90;;;;;;;19.84;100.00;95723.25;5084665;28;20187;-69
2023/07/18 03:15:39;;;;;;;1999.90;999.90;;;;;;;19.77;100.00;95710.41;5084771;28;20184;-70
2023/07/18 03:18:06;;;;;;;1999.90;999.90;;;;;;;19.77;100.00;95682.69;5083276;28;20199;-68
2023/07/18 03:20:31;;;;;;;1999.90;999.90;;;;;;;19.74;100.00;95633.69;5084016;28;20205;-69
2023/07/18 03:22:56;;;;;;;1999.90;999.90;;;;;;;19.73;100.00;95601.69;5084589;28;20228;-68
2023/07/18 03:25:22;;;;;;;1999.90;999.90;;;;;;;19.64;100.00;95579.50;5084312;28;20204;-68
2023/07/18 03:27:47;;;;;;;1999.90;999.90;;;;;;;19.49;100.00;95540.47;5083952;28;20177;-67
2023/07/18 03:30:13;;;;;;;1999.90;999.90;;;;;;;19.38;100.00;95464.59;5083961;28;20169;-68
2023/07/18 03:32:39;;;;;;;1999.90;999.90;;;;;;;19.33;100.00;95332.22;5083985;28;20236;-68
2023/07/18 03:35:06;;;;;;;1999.90;999.90;;;;;;;19.32;100.00;95139.59;5084528;28;20295;-68
2023/07/18 03:37:32;;;;;;;1999.90;999.90;;;;;;;19.22;100.00;94838.97;5083794;28;20238;-69
2023/07/18 03:39:58;;;;;;;1999.90;999.90;;;;;;;19.19;100.00;94695.94;5084312;28;20276;-69
2023/07/18 03:42:23;;;;;;;1999.90;999.90;;;;;;;19.18;100.00;94608.59;5084348;28;20173;-69
2023/07/18 03:44:49;;;;;;;1999.90;999.90;;;;;;;19.13;100.00;94548.38;5084465;28;20169;-69
2023/07/18 03:47:14;;;;;;;1999.90;999.90;;;;;;;19.19;100.00;94502.13;5083900;28;20169;-68
2023/07/18 03:49:39;;;;;;;1999.90;999.90;;;;;;;19.24;100.00;94493.19;5083793;28;20173;-69
2023/07/18 03:52:05;;;;;;;1999.90;999.90;;;;;;;19.24;100.00;94509.78;5083529;28;20220;-69
2023/07/18 03:54:33;;;;;;;1999.90;999.90;;;;;;;19.22;100.00;94501.19;5084290;28;20176;-69
2023/07/18 03:56:59;;;;;;;1999.90;999.90;;;;;;;19.25;100.00;94494.72;5083687;28;20169;-69
2023/07/18 03:59:25;;;;;;;1999.90;999.90;;;;;;;19.29;100.00;94492.50;5083604;28;20200;-68
2023/07/18 04:01:51;;;;;;;1999.90;999.90;;;;;;;19.37;100.00;94491.63;5083501;28;20208;-69
2023/07/18 04:04:16;;;;;;;1999.90;999.90;;;;;;;19.38;100.00;94495.19;5084119;28;20329;-69
2023/07/18 04:06:43;;;;;;;1999.90;999.90;;;;;;;19.39;100.00;94491.16;5083797;28;20199;-69
2023/07/18 04:09:09;;;;;;;1999.90;999.90;;;;;;;19.38;100.00;94509.03;5084248;28;20173;-69
2023/07/18 04:11:35;;;;;;;1999.90;999.90;;;;;;;19.45;100.00;94503.09;5083568;28;20194;-69
2023/07/18 04:14:01;;;;;;;1999.90;999.90;;;;;;;19.69;100.00;94513.97;5083603;28;20169;-69
2023/07/18 04:16:26;;;;;;;1999.90;999.90;;;;;;;20.05;100.00;94549.47;5083366;28;20200;-68
2023/07/18 04:18:51;;;;;;;1999.90;999.90;;;;;;;20.34;100.00;94602.84;5084098;28;20275;-68
2023/07/18 04:21:17;;;;;;;1999.90;999.90;;;;;;;20.61;100.00;94693.22;5083375;28;20204;-68
2023/07/18 04:23:42;;;;;;;1999.90;999.90;;;;;;;21.00;100.00;94769.44;5083978;28;20174;-68
2023/07/18 04:26:09;;;;;;;1999.90;999.90;;;;;;;21.28;100.00;94890.81;5083427;28;20181;-68
2023/07/18 04:28:36;;;;;;;1999.90;999.90;;;;;;;21.52;100.00;94999.75;5083520;28;20169;-68
2023/07/18 04:31:02;;;;;;;1999.90;999.90;;;;;;;21.85;100.00;95086.44;5087384;28;20177;-68
2023/07/18 04:33:27;;;;;;;1999.90;999.90;;;;;;;22.14;100.00;95219.91;5087710;28;20260;-67
2023/07/18 04:35:53;;;;;;;1999.90;999.90;;;;;;;22.41;100.00;95327.34;5087687;28;20183;-67
2023/07/18 04:38:19;;;;;;;1999.90;999.90;;;;;;;22.63;100.00;95383.44;5087205;28;20184;-67
2023/07/18 04:40:44;;;;;;;1999.90;999.90;;;;;;;23.11;100.00;95473.84;5087511;28;20205;-67
2023/07/18 04:43:10;;;;;;;1999.90;999.90;;;;;;;23.15;100.00;95546.88;5087949;28;20173;-67
2023/07/18 04:45:47;;;;;;;1999.90;999.90;;;;;;;23.50;100.00;95595.16;5086950;28;20227;-67
2023/07/18 04:48:18;;;;;;;1999.90;999.90;;;;;;;23.92;100.00;95636.63;5087597;28;20207;-66
2023/07/18 04:50:55;;;;;;;1999.90;999.90;;;;;;;23.85;100.00;95670.56;5087445;28;20169;-66
2023/07/18 04:53:21;;;;;;;1999.90;999.90;;;;;;;24.02;100.00;95654.84;5086902;28;20217;-67
2023/07/18 04:55:50;;;;;;;1999.90;999.90;;;;;;;24.39;100.00;95678.25;5087507;28;20174;-66
2023/07/18 04:58:17;;;;;;;1999.90;999.90;;;;;;;24.58;100.00;95701.91;5086933;28;20188;-66
2023/07/18 05:00:42;;;;;;;1999.90;999.90;;;;;;;24.80;100.00;95711.34;5087202;28;20242;-65
2023/07/18 05:03:08;;;;;;;1999.90;999.90;;;;;;;25.11;100.00;95724.72;5086737;28;20173;-66
2023/07/18 05:05:33;;;;;;;1999.90;999.90;;;;;;;25.16;100.00;95733.16;5086569;28;20161;-66
2023/07/18 05:07:59;;;;;;;1999.90;999.90;;;;;;;25.74;100.00;95742.50;5086974;28;20166;-65
2023/07/18 05:10:25;;;;;;;1999.90;999.90;;;;;;;25.96;100.00;95759.53;5087128;28;20191;-65
2023/07/18 05:12:52;;;;;;;1999.90;999.90;;;;;;;26.20;100.00;95774.00;5086939;28;20215;-65
2023/07/18 05:15:18;;;;;;;1999.90;999.90;;;;;;;26.17;100.00;95792.56;5086328;28;20169;-65
2023/07/18 05:17:43;;;;;;;1999.90;999.90;;;;;;;26.44;100.00;95799.69;5087243;28;20232;-66
2023/07/18 05:20:10;;;;;;;1999.90;999.90;;;;;;;26.44;100.00;95808.84;5086733;28;20267;-65
2023/07/18 05:22:40;;;;;;;1999.90;999.90;;;;;;;26.93;100.00;95819.72;5086292;28;20169;-65
2023/07/18 05:25:07;;;;;;;1999.90;999.90;;;;;;;27.27;100.00;95810.25;5085750;28;20174;-65
2023/07/18 05:27:33;;;;;;;1999.90;999.90;;;;;;;27.86;100.00;95808.22;5086610;28;20170;-64
2023/07/18 05:29:59;;;;;;;1999.90;999.90;;;;;;;28.03;100.00;95814.63;5086073;28;20173;-64
2023/07/18 05:32:24;;;;;;;1999.90;999.90;;;;;;;28.27;100.00;95817.72;5086088;28;20245;-65
2023/07/18 05:34:50;;;;;;;1999.90;999.90;;;;;;;28.42;100.00;95811.88;5086006;28;20199;-64
2023/07/18 05:37:16;;;;;;;1999.90;999.90;;;;;;;29.18;100.00;95815.97;5086427;28;20169;-64
2023/07/18 05:39:41;;;;;;;1999.90;999.90;;;;;;;28.82;95.40;95816.25;5085725;28;20176;-64
2023/07/18 05:42:07;;;;;;;1999.90;999.90;;;;;;;28.86;94.33;95808.31;5085184;28;20236;-65
2023/07/18 05:44:32;;;;;;;1999.90;999.90;;;;;;;28.61;94.99;95812.16;5086559;28;20169;-65
2023/07/18 05:46:58;;;;;;;1999.90;999.90;;;;;;;28.89;91.49;95815.72;5086532;28;20222;-64
2023/07/18 05:49:24;;;;;;;1999.90;999.90;;;;;;;28.53;90.40;95811.16;5085636;28;20174;-64
2023/07/18 05:51:50;;;;;;;1999.90;999.90;;;;;;;27.37;95.36;95819.22;5085623;28;20237;-65
2023/07/18 05:54:15;;;;;;;1999.90;999.90;;;;;;;27.49;93.78;95813.16;5085980;28;20173;-64
2023/07/18 05:56:41;;;;;;;1999.90;999.90;;;;;;;28.18;87.40;95806.75;5085572;28;20173;-65
2023/07/18 05:59:07;;;;;;;1999.90;999.90;;;;;;;28.05;93.33;95798.03;5085550;28;20195;-64
2023/07/18 06:01:32;;;;;;;1999.90;999.90;;;;;;;28.70;84.60;95804.25;5086011;28;20197;-64
2023/07/18 06:03:59;;;;;;;1999.90;999.90;;;;;;;28.01;88.29;95791.16;5086030;28;20200;-64
2023/07/18 06:06:24;;;;;;;1999.90;999.90;;;;;;;28.12;86.01;95794.72;5086209;28;20215;-64
2023/07/18 06:08:50;;;;;;;1999.90;999.90;;;;;;;28.06;87.66;95791.16;5085402;28;20165;-64
2023/07/18 06:11:16;;;;;;;1999.90;999.90;;;;;;;29.45;74.85;95800.28;5085107;28;20199;-63
2023/07/18 06:13:41;;;;;;;1999.90;999.90;;;;;;;29.41;75.86;95805.41;5085690;28;20169;-65
2023/07/18 06:16:07;;;;;;;1999.90;999.90;;;;;;;29.65;71.71;95797.16;5085154;28;20165;-65
2023/07/18 06:18:32;;;;;;;1999.90;999.90;;;;;;;29.52;70.03;95791.28;5085176;28;20204;-65
2023/07/18 06:20:57;;;;;;;1999.90;999.90;;;;;;;29.77;64.67;95807.09;5085090;28;20220;-64
2023/07/18 06:23:23;;;;;;;1999.90;999.90;;;;;;;29.38;66.91;95795.16;5085101;28;20244;-64
2023/07/18 06:25:48;;;;;;;1999.90;999.90;;;;;;;30.04;66.38;95801.31;5085314;28;20165;-64
2023/07/18 06:28:13;;;;;;;1999.90;999.90;;;;;;;30.39;62.96;95797.78;5085584;28;20165;-64
2023/07/18 06:30:39;;;;;;;1999.90;999.90;;;;;;;29.82;65.70;95800.69;5084847;28;20174;-64
2023/07/18 06:33:04;;;;;;;1999.90;999.90;;;;;;;30.66;60.61;95794.72;5084582;28;20197;-64
2023/07/18 06:35:32;;;;;;;1999.90;999.90;;;;;;;30.63;56.78;95789.38;5085257;28;20173;-64
2023/07/18 06:37:57;;;;;;;1999.90;999.90;;;;;;;29.68;60.75;95790.50;5085238;28;20184;-64
2023/07/18 06:40:22;;;;;;;1999.90;999.90;;;;;;;30.70;58.70;95783.19;5084593;28;20196;-64
2023/07/18 06:42:48;;;;;;;1999.90;999.90;;;;;;;29.01;63.58;95789.09;5085102;28;20204;-65
2023/07/18 06:45:14;;;;;;;1999.90;999.90;;;;;;;30.25;60.52;95776.34;5084703;28;20169;-64
2023/07/18 06:47:40;;;;;;;1999.90;999.90;;;;;;;30.31;59.48;95777.06;5084595;28;20201;-64
2023/07/18 06:50:05;;;;;;;1999.90;999.90;;;;;;;30.73;55.40;95773.66;5085098;28;20176;-64
2023/07/18 06:52:31;;;;;;;1999.90;999.90;;;;;;;29.99;56.24;95781.59;5083794;28;20220;-65
2023/07/18 06:54:56;;;;;;;1999.90;999.90;;;;;;;30.64;54.70;95765.53;5084358;28;20199;-64
2023/07/18 06:57:21;;;;;;;1999.90;999.90;;;;;;;30.76;55.13;95776.22;5085036;28;20241;-64
2023/07/18 06:59:47;;;;;;;1999.90;999.90;;;;;;;31.01;55.25;95782.63;5084319;28;20185;-64
2023/07/18 07:02:13;;;;;;;1999.90;999.90;;;;;;;31.81;51.19;95772.25;5084303;28;20169;-64
2023/07/18 07:04:39;;;;;;;1999.90;999.90;;;;;;;30.85;51.36;95783.59;5084821;28;20165;-64
2023/07/18 07:07:06;;;;;;;1999.90;999.90;;;;;;;31.09;53.23;95775.88;5084793;28;20211;-64
2023/07/18 07:09:33;;;;;;;1999.90;999.90;;;;;;;31.79;50.42;95774.84;5084606;28;20170;-64
2023/07/18 07:11:58;;;;;;;1999.90;999.90;;;;;;;31.26;48.28;95784.22;5084148;28;20175;-64
2023/07/18 07:14:24;;;;;;;1999.90;999.90;;;;;;;31.17;50.82;95778.88;5083765;28;20188;-64
2023/07/18 07:16:49;;;;;;;1999.90;999.90;;;;;;;31.47;44.36;95771.13;5084187;28;20169;-63
2023/07/18 07:19:14;;;;;;;1999.90;999.90;;;;;;;31.20;45.67;95769.34;5084434;28;20238;-64
2023/07/18 07:21:40;;;;;;;1999.90;999.90;;;;;;;31.74;47.78;95760.75;5083953;28;20242;-64
2023/07/18 07:24:05;;;;;;;1999.90;999.90;;;;;;;32.89;45.54;95755.44;5084584;28;20169;-64
2023/07/18 07:26:31;;;;;;;1999.90;999.90;;;;;;;32.66;43.19;95748.63;5083968;28;20201;-64
2023/07/18 07:28:57;;;;;;;1999.90;999.90;;;;;;;31.57;49.10;95749.66;5083986;28;20260;-64
2023/07/18 07:31:22;;;;;;;1999.90;999.90;;;;;;;31.49;50.82;95737.44;5083973;28;20175;-64
2023/07/18 07:33:48;;;;;;;1999.90;999.90;;;;;;;32.14;46.41;95732.19;5084722;28;20192;-64
2023/07/18 07:36:13;;;;;;;1999.90;999.90;;;;;;;32.44;47.48;95738.44;5083942;28;20165;-64
2023/07/18 07:38:38;;;;;;;1999.90;999.90;;;;;;;31.71;51.10;95740.00;5084661;28;20176;-65
2023/07/18 07:41:05;;;;;;;1999.90;999.90;;;;;;;31.68;47.20;95724.09;5083644;28;20221;-64
2023/07/18 07:43:30;;;;;;;1999.90;999.90;;;;;;;31.64;49.89;95729.28;5083881;28;20199;-64
2023/07/18 07:45:56;;;;;;;1999.90;999.90;;;;;;;31.75;51.55;95723.47;5083773;28;20169;-64
2023/07/18 07:48:21;;;;;;;1999.90;999.90;;;;;;;31.93;51.67;95733.31;5083728;28;20165;-64
2023/07/18 07:50:48;;;;;;;1999.90;999.90;;;;;;;32.63;51.30;95727.06;5084259;28;20169;-64
2023/07/18 07:53:14;;;;;;;1999.90;999.90;;;;;;;33.07;49.47;95726.28;5083709;28;20205;-64
2023/07/18 07:55:39;;;;;;;1999.90;999.90;;;;;;;32.65;46.55;95728.03;5084132;28;20169;-64
2023/07/18 07:58:05;;;;;;;1999.90;999.90;;;;;;;31.41;52.16;95721.63;5083652;28;20165;-64
2023/07/18 08:00:30;;;;;;;1999.90;999.90;;;;;;;32.44;48.61;95738.44;5083522;28;20220;-64
2023/07/18 08:02:55;;;;;;;1999.90;999.90;;;;;;;32.83;48.02;95729.31;5083626;28;20165;-64
2023/07/18 08:05:21;;;;;;;1999.90;999.90;;;;;;;32.65;48.67;95713.91;5086036;28;20265;-65
2023/07/18 08:07:46;;;;;;;1999.90;999.90;;;;;;;32.44;48.99;95715.06;5087653;28;20165;-64
2023/07/18 08:10:12;;;;;;;1999.90;999.90;;;;;;;32.90;47.23;95712.44;5087415;28;20169;-64
2023/07/18 08:12:38;;;;;;;1999.90;999.90;;;;;;;32.10;52.17;95703.47;5087601;28;20176;-64
2023/07/18 08:15:04;;;;;;;1999.90;999.90;;;;;;;33.56;50.38;95699.81;5087730;28;20169;-64
2023/07/18 08:17:29;;;;;;;1999.90;999.90;;;;;;;32.33;51.22;95704.66;5088234;28;20165;-64
2023/07/18 08:19:55;;;;;;;1999.90;999.90;;;;;;;32.29;51.01;95704.19;5087403;28;20185;-64
2023/07/18 08:22:20;;;;;;;1999.90;999.90;;;;;;;32.95;50.53;95697.41;5087413;28;20172;-65
2023/07/18 08:24:46;;;;;;;1999.90;999.90;;;;;;;33.47;49.77;95680.41;5087213;28;20169;-64
2023/07/18 08:27:11;;;;;;;1999.90;999.90;;;;;;;32.87;50.66;95679.56;5087455;28;20173;-63
2023/07/18 08:29:36;;;;;;;1999.90;999.90;;;;;;;32.74;51.20;95690.06;5087762;28;20176;-63
2023/07/18 08:32:03;;;;;;;1999.90;999.90;;;;;;;33.00;50.08;95681.63;5087612;28;20177;-64
2023/07/18 08:34:28;;;;;;;1999.90;999.90;;;;;;;34.12;46.47;95673.03;5087177;28;20169;-62
2023/07/18 08:36:54;;;;;;;1999.90;999.90;;;;;;;35.13;45.47;95676.34;5086787;28;20174;-62
2023/07/18 08:39:19;;;;;;;1999.90;999.90;;;;;;;34.49;43.56;95675.50;5087381;28;20170;-62
2023/07/18 08:41:46;;;;;;;1999.90;999.90;;;;;;;34.21;45.11;95675.38;5087485;28;20228;-62
2023/07/18 08:44:13;;;;;;;1999.90;999.90;;;;;;;34.46;46.19;95665.25;5087060;28;20170;-62
2023/07/18 08:46:42;;;;;;;1999.90;999.90;;;;;;;35.24;43.61;95659.00;5086759;28;20241;-62
2023/07/18 08:49:10;;;;;;;1999.90;999.90;;;;;;;33.52;48.35;95662.53;5087300;28;20185;-63
2023/07/18 08:51:36;;;;;;;1999.90;999.90;;;;;;;33.97;48.36;95658.72;5086832;28;20181;-62
2023/07/18 08:54:01;;;;;;;1999.90;999.90;;;;;;;34.27;46.05;95659.00;5086922;28;20283;-63
2023/07/18 08:56:27;;;;;;;1999.90;999.90;;;;;;;34.06;47.92;95649.72;5086747;28;20177;-62
2023/07/18 08:58:54;;;;;;;1999.90;999.90;;;;;;;34.43;47.14;95640.81;5087160;28;20217;-62
2023/07/18 09:01:20;;;;;;;1999.90;999.90;;;;;;;33.82;46.05;95653.59;5087242;28;20207;-62
2023/07/18 09:03:45;;;;;;;1999.90;999.90;;;;;;;34.58;47.72;95638.09;5086572;28;20174;-62
2023/07/18 09:06:18;;;;;;;1999.90;999.90;;;;;;;35.56;43.59;95628.09;5086610;28;20174;-62
2023/07/18 09:08:44;;;;;;;1999.90;999.90;;;;;;;35.25;42.91;95637.81;5086429;28;20179;-62
2023/07/18 09:11:12;;;;;;;1999.90;999.90;;;;;;;34.58;45.69;95633.19;5086519;28;20197;-62
2023/07/18 09:13:41;;;;;;;1999.90;999.90;;;;;;;34.02;48.08;95632.28;5086240;28;20236;-64
2023/07/18 09:16:17;;;;;;;1999.90;999.90;;;;;;;33.05;51.75;95626.94;5085220;28;20169;-62
2023/07/18 09:18:50;;;;;;;1999.90;999.90;;;;;;;34.46;48.31;95625.50;5086828;28;20180;-63
2023/07/18 09:21:16;;;;;;;1999.90;999.90;;;;;;;34.06;48.75;95622.13;5086631;28;20200;-63
2023/07/18 09:23:43;;;;;;;1999.90;999.90;;;;;;;34.26;49.38;95621.34;5086279;28;20173;-63
2023/07/18 09:26:12;;;;;;;1999.90;999.90;;;;;;;33.83;51.94;95613.38;5086545;28;20174;-62
2023/07/18 09:28:38;;;;;;;1999.90;999.90;;;;;;;35.12;47.68;95600.97;5086178;28;20173;-64
2023/07/18 09:31:25;;;;;;;1999.90;999.90;;;;;;;34.57;52.02;95613.88;5086212;28;20214;-63
2023/07/18 09:33:52;;;;;;;1999.90;999.90;;;;;;;35.67;47.75;95600.09;5086186;28;20169;-62
2023/07/18 09:36:22;;;;;;;1999.90;999.90;;;;;;;34.74;48.48;95617.03;5086160;28;20272;-62
2023/07/18 09:38:49;;;;;;;1999.90;999.90;;;;;;;34.32;52.73;95604.19;5086454;28;20177;-62
2023/07/18 09:41:19;;;;;;;1999.90;999.90;;;;;;;34.08;53.81;95601.72;5085774;28;20193;-62
2023/07/18 09:43:45;;;;;;;1999.90;999.90;;;;;;;34.14;52.86;95605.16;5085894;28;20165;-62
2023/07/18 09:46:13;;;;;;;1999.90;999.90;;;;;;;33.96;56.38;95597.63;5085861;28;20207;-62
2023/07/18 09:48:44;;;;;;;1999.90;999.90;;;;;;;34.36;53.16;95591.19;5086096;28;20192;-63
2023/07/18 09:51:21;;;;;;;1999.90;999.90;;;;;;;33.70;57.31;95595.63;5085714;28;20197;-62
2023/07/18 09:53:48;;;;;;;1999.90;999.90;;;;;;;34.22;55.55;95595.41;5085701;28;20272;-62
2023/07/18 09:56:15;;;;;;;1999.90;999.90;;;;;;;34.72;53.75;95591.25;5085715;28;20180;-61
2023/07/18 09:58:42;;;;;;;1999.90;999.90;;;;;;;34.53;56.10;95590.75;5085978;28;20183;-64
2023/07/18 10:01:16;;;;;;;1999.90;999.90;;;;;;;35.79;51.21;95584.22;5085005;28;20209;-64
2023/07/18 10:03:42;;;;;;;1999.90;999.90;;;;;;;34.68;53.58;95585.16;5085625;28;20188;-65
2023/07/18 10:06:10;;;;;;;1999.90;999.90;;;;;;;34.98;51.80;95580.47;5085973;28;20223;-64
2023/07/18 10:08:41;;;;;;;1999.90;999.90;;;;;;;34.02;53.78;95586.91;5085472;28;20172;-62
2023/07/18 10:11:10;;;;;;;1999.90;999.90;;;;;;;35.11;52.71;95571.81;5085759;28;20207;-61
2023/07/18 10:14:07;;;;;;;1999.90;999.90;;;;;;;35.72;49.46;95573.53;5085422;28;20189;-61
2023/07/18 10:16:35;;;;;;;1999.90;999.90;;;;;;;36.52;51.24;95569.06;5085756;28;20200;-61
2023/07/18 10:19:17;;;;;;;1999.90;999.90;;;;;;;37.46;45.28;95566.38;5085261;28;20173;-61
2023/07/18 10:21:47;;;;;;;1999.90;999.90;;;;;;;37.75;44.83;95570.44;5085654;28;20207;-61
2023/07/18 10:24:21;;;;;;;1999.90;999.90;;;;;;;37.04;48.40;95573.94;5085058;28;20177;-62
2023/07/18 10:27:00;;;;;;;1999.90;999.90;;;;;;;37.25;50.07;95565.88;5085071;28;20188;-61
2023/07/18 10:29:31;;;;;;;1999.90;999.90;;;;;;;38.03;47.02;95558.63;5085795;28;20266;-61
2023/07/18 10:31:57;;;;;;;1999.90;999.90;;;;;;;38.08;45.15;95571.94;5084944;28;20193;-61
2023/07/18 10:34:22;;;;;;;1999.90;999.90;;;;;;;37.99;45.25;95566.84;5084954;28;20170;-61
2023/07/18 10:36:59;;;;;;;1999.90;999.90;;;;;;;38.03;43.70;95561.50;5085620;28;20176;-60
2023/07/18 10:39:40;;;;;;;1999.90;999.90;;;;;;;38.15;44.19;95554.00;5084906;28;20169;-60
2023/07/18 10:42:20;;;;;;;1999.90;999.90;;;;;;;37.12;43.96;95556.81;5084720;28;20177;-63
2023/07/18 10:44:52;;;;;;;1999.90;999.90;;;;;;;35.76;46.77;95561.81;5085227;28;20165;-60
2023/07/18 10:47:18;;;;;;;1999.90;999.90;;;;;;;36.58;49.84;95552.56;5085188;28;20173;-57